sensor_id;sensor_type;location;lat;lon;timestamp;P1;durP1;ratioP1;P2;durP2;ratioP2
29358;SDS011;16347;53.232;6.556;2023-06-04T00:01:17;9.73;;;3.55;;
29358;SDS011;16347;53.232;6.556;2023-06-04T00:03:47;8.68;;;3.78;;
29358;SDS011;16347;53.232;6.556;2023-06-04T00:06:15;16.17;;;3.38;;
29358;SDS011;16347;53.232;6.556;2023-06-04T00:08:42;12.65;;;3.35;;
29358;SDS011;16347;53.232;6.556;2023-06-04T00:11:10;8.43;;;3.33;;
29358;SDS011;16347;53.232;6.556;2023-06-04T00:13:38;11.80;;;3.33;;
29358;SDS011;16347;53.232;6.556;2023-06-04T00:16:06;12.15;;;3.65;;
29358;SDS011;16347;53.232;6.556;2023-06-04T00:18:34;15.07;;;3.90;;
29358;SDS011;16347;53.232;6.556;2023-06-04T00:21:04;9.60;;;3.55;;
29358;SDS011;16347;53.232;6.556;2023-06-04T00:23:32;13.15;;;3.78;;
29358;SDS011;16347;53.232;6.556;2023-06-04T00:26:00;10.63;;;3.50;;
29358;SDS011;16347;53.232;6.556;2023-06-04T00:28:28;9.88;;;3.70;;
29358;SDS011;16347;53.232;6.556;2023-06-04T00:30:56;9.80;;;3.22;;
29358;SDS011;16347;53.232;6.556;2023-06-04T00:33:23;16.13;;;4.13;;
29358;SDS011;16347;53.232;6.556;2023-06-04T00:35:51;15.65;;;4.05;;
29358;SDS011;16347;53.232;6.556;2023-06-04T00:38:21;11.80;;;4.13;;
29358;SDS011;16347;53.232;6.556;2023-06-04T00:40:48;15.63;;;3.53;;
29358;SDS011;16347;53.232;6.556;2023-06-04T00:43:16;13.30;;;3.55;;
29358;SDS011;16347;53.232;6.556;2023-06-04T00:45:45;13.25;;;4.13;;
29358;SDS011;16347;53.232;6.556;2023-06-04T00:48:13;9.13;;;3.53;;
29358;SDS011;16347;53.232;6.556;2023-06-04T00:50:40;15.05;;;3.88;;
29358;SDS011;16347;53.232;6.556;2023-06-04T00:53:09;9.50;;;3.25;;
29358;SDS011;16347;53.232;6.556;2023-06-04T00:55:38;9.13;;;3.70;;
29358;SDS011;16347;53.232;6.556;2023-06-04T00:58:06;10.63;;;3.35;;
29358;SDS011;16347;53.232;6.556;2023-06-04T01:00:35;13.25;;;3.90;;
29358;SDS011;16347;53.232;6.556;2023-06-04T01:03:07;13.82;;;3.83;;
29358;SDS011;16347;53.232;6.556;2023-06-04T01:05:41;11.20;;;3.53;;
29358;SDS011;16347;53.232;6.556;2023-06-04T01:08:15;9.35;;;3.55;;
29358;SDS011;16347;53.232;6.556;2023-06-04T01:10:51;11.25;;;3.67;;
29358;SDS011;16347;53.232;6.556;2023-06-04T01:13:19;9.98;;;3.67;;
29358;SDS011;16347;53.232;6.556;2023-06-04T01:15:48;9.50;;;3.42;;
29358;SDS011;16347;53.232;6.556;2023-06-04T01:18:17;11.00;;;3.88;;
29358;SDS011;16347;53.232;6.556;2023-06-04T01:20:55;10.20;;;3.35;;
29358;SDS011;16347;53.232;6.556;2023-06-04T01:23:29;10.05;;;3.33;;
29358;SDS011;16347;53.232;6.556;2023-06-04T01:26:03;9.48;;;3.28;;
29358;SDS011;16347;53.232;6.556;2023-06-04T01:28:32;9.75;;;3.58;;
29358;SDS011;16347;53.232;6.556;2023-06-04T01:31:02;14.50;;;3.38;;
29358;SDS011;16347;53.232;6.556;2023-06-04T01:33:31;8.48;;;3.80;;
29358;SDS011;16347;53.232;6.556;2023-06-04T01:35:59;9.15;;;3.33;;
29358;SDS011;16347;53.232;6.556;2023-06-04T01:38:28;8.55;;;3.38;;
29358;SDS011;16347;53.232;6.556;2023-06-04T01:40:56;12.90;;;3.78;;
29358;SDS011;16347;53.232;6.556;2023-06-04T01:43:29;8.52;;;3.03;;
29358;SDS011;16347;53.232;6.556;2023-06-04T01:48:31;10.13;;;3.33;;
29358;SDS011;16347;53.232;6.556;2023-06-04T01:50:59;10.43;;;3.60;;
29358;SDS011;16347;53.232;6.556;2023-06-04T01:53:27;15.30;;;3.95;;
29358;SDS011;16347;53.232;6.556;2023-06-04T01:55:55;9.73;;;3.60;;
29358;SDS011;16347;53.232;6.556;2023-06-04T01:58:25;9.98;;;3.47;;
29358;SDS011;16347;53.232;6.556;2023-06-04T02:00:59;12.38;;;3.85;;
29358;SDS011;16347;53.232;6.556;2023-06-04T02:03:29;11.18;;;3.10;;
29358;SDS011;16347;53.232;6.556;2023-06-04T02:08:34;13.90;;;3.65;;
29358;SDS011;16347;53.232;6.556;2023-06-04T02:11:02;12.30;;;3.50;;
29358;SDS011;16347;53.232;6.556;2023-06-04T02:13:30;11.85;;;3.92;;
29358;SDS011;16347;53.232;6.556;2023-06-04T02:16:00;13.27;;;3.78;;
29358;SDS011;16347;53.232;6.556;2023-06-04T02:18:28;10.13;;;3.63;;
29358;SDS011;16347;53.232;6.556;2023-06-04T02:20:56;8.57;;;3.75;;
29358;SDS011;16347;53.232;6.556;2023-06-04T02:23:25;14.35;;;3.95;;
29358;SDS011;16347;53.232;6.556;2023-06-04T02:25:53;11.98;;;3.97;;
29358;SDS011;16347;53.232;6.556;2023-06-04T02:28:21;12.18;;;3.30;;
29358;SDS011;16347;53.232;6.556;2023-06-04T02:30:49;11.07;;;3.53;;
29358;SDS011;16347;53.232;6.556;2023-06-04T02:33:19;8.88;;;3.83;;
29358;SDS011;16347;53.232;6.556;2023-06-04T02:35:47;10.98;;;3.60;;
29358;SDS011;16347;53.232;6.556;2023-06-04T02:38:16;18.08;;;4.03;;
29358;SDS011;16347;53.232;6.556;2023-06-04T02:40:44;8.93;;;2.85;;
29358;SDS011;16347;53.232;6.556;2023-06-04T02:43:12;9.07;;;3.35;;
29358;SDS011;16347;53.232;6.556;2023-06-04T02:45:39;10.20;;;3.20;;
29358;SDS011;16347;53.232;6.556;2023-06-04T02:48:08;12.02;;;3.58;;
29358;SDS011;16347;53.232;6.556;2023-06-04T02:50:37;10.00;;;3.30;;
29358;SDS011;16347;53.232;6.556;2023-06-04T02:53:08;10.70;;;3.35;;
29358;SDS011;16347;53.232;6.556;2023-06-04T02:55:36;13.38;;;3.17;;
29358;SDS011;16347;53.232;6.556;2023-06-04T02:58:04;6.72;;;2.58;;
29358;SDS011;16347;53.232;6.556;2023-06-04T03:00:32;7.50;;;2.70;;
29358;SDS011;16347;53.232;6.556;2023-06-04T03:03:00;8.50;;;2.90;;
29358;SDS011;16347;53.232;6.556;2023-06-04T03:05:29;7.85;;;3.17;;
29358;SDS011;16347;53.232;6.556;2023-06-04T03:08:01;4.57;;;2.58;;
29358;SDS011;16347;53.232;6.556;2023-06-04T03:10:30;7.30;;;2.80;;
29358;SDS011;16347;53.232;6.556;2023-06-04T03:12:59;5.28;;;2.70;;
29358;SDS011;16347;53.232;6.556;2023-06-04T03:15:27;5.68;;;2.33;;
29358;SDS011;16347;53.232;6.556;2023-06-04T03:17:55;5.57;;;2.83;;
29358;SDS011;16347;53.232;6.556;2023-06-04T03:20:24;6.00;;;2.78;;
29358;SDS011;16347;53.232;6.556;2023-06-04T03:22:52;8.82;;;3.25;;
29358;SDS011;16347;53.232;6.556;2023-06-04T03:25:22;8.32;;;2.40;;
29358;SDS011;16347;53.232;6.556;2023-06-04T03:27:51;6.13;;;2.58;;
29358;SDS011;16347;53.232;6.556;2023-06-04T03:30:19;6.93;;;2.78;;
29358;SDS011;16347;53.232;6.556;2023-06-04T03:32:57;6.55;;;2.78;;
29358;SDS011;16347;53.232;6.556;2023-06-04T03:35:25;6.20;;;2.25;;
29358;SDS011;16347;53.232;6.556;2023-06-04T03:37:53;12.25;;;2.88;;
29358;SDS011;16347;53.232;6.556;2023-06-04T03:40:21;6.20;;;2.72;;
29358;SDS011;16347;53.232;6.556;2023-06-04T03:42:51;8.07;;;2.60;;
29358;SDS011;16347;53.232;6.556;2023-06-04T03:45:20;7.10;;;3.05;;
29358;SDS011;16347;53.232;6.556;2023-06-04T03:47:49;9.85;;;3.13;;
29358;SDS011;16347;53.232;6.556;2023-06-04T03:50:17;7.68;;;3.00;;
29358;SDS011;16347;53.232;6.556;2023-06-04T03:52:46;6.05;;;3.00;;
29358;SDS011;16347;53.232;6.556;2023-06-04T03:55:14;5.88;;;2.58;;
29358;SDS011;16347;53.232;6.556;2023-06-04T03:57:44;7.85;;;2.78;;
29358;SDS011;16347;53.232;6.556;2023-06-04T04:00:13;7.40;;;2.67;;
29358;SDS011;16347;53.232;6.556;2023-06-04T04:02:47;5.68;;;2.40;;
29358;SDS011;16347;53.232;6.556;2023-06-04T04:05:21;5.38;;;2.17;;
29358;SDS011;16347;53.232;6.556;2023-06-04T04:07:49;4.85;;;2.17;;
29358;SDS011;16347;53.232;6.556;2023-06-04T04:10:22;3.58;;;2.25;;
29358;SDS011;16347;53.232;6.556;2023-06-04T04:12:51;3.90;;;2.30;;
29358;SDS011;16347;53.232;6.556;2023-06-04T04:15:21;5.97;;;2.55;;
29358;SDS011;16347;53.232;6.556;2023-06-04T04:17:51;7.10;;;2.75;;
29358;SDS011;16347;53.232;6.556;2023-06-04T04:20:19;5.40;;;2.90;;
29358;SDS011;16347;53.232;6.556;2023-06-04T04:22:55;5.97;;;2.78;;
29358;SDS011;16347;53.232;6.556;2023-06-04T04:25:24;7.72;;;2.92;;
29358;SDS011;16347;53.232;6.556;2023-06-04T04:27:54;6.30;;;3.13;;
29358;SDS011;16347;53.232;6.556;2023-06-04T04:32:55;9.90;;;3.30;;
29358;SDS011;16347;53.232;6.556;2023-06-04T04:35:29;7.30;;;3.30;;
29358;SDS011;16347;53.232;6.556;2023-06-04T04:37:59;10.80;;;3.35;;
29358;SDS011;16347;53.232;6.556;2023-06-04T04:40:37;5.63;;;2.78;;
29358;SDS011;16347;53.232;6.556;2023-06-04T04:43:08;8.15;;;3.05;;
29358;SDS011;16347;53.232;6.556;2023-06-04T04:45:36;9.82;;;3.58;;
29358;SDS011;16347;53.232;6.556;2023-06-04T04:48:06;13.43;;;3.42;;
29358;SDS011;16347;53.232;6.556;2023-06-04T04:50:34;7.32;;;3.53;;
29358;SDS011;16347;53.232;6.556;2023-06-04T04:53:03;7.20;;;3.72;;
29358;SDS011;16347;53.232;6.556;2023-06-04T04:55:33;9.95;;;3.83;;
29358;SDS011;16347;53.232;6.556;2023-06-04T04:58:01;8.05;;;3.55;;
29358;SDS011;16347;53.232;6.556;2023-06-04T05:00:30;11.23;;;4.28;;
29358;SDS011;16347;53.232;6.556;2023-06-04T05:03:00;8.60;;;3.72;;
29358;SDS011;16347;53.232;6.556;2023-06-04T05:05:28;13.32;;;4.25;;
29358;SDS011;16347;53.232;6.556;2023-06-04T05:07:56;12.63;;;4.28;;
29358;SDS011;16347;53.232;6.556;2023-06-04T05:10:29;17.50;;;4.60;;
29358;SDS011;16347;53.232;6.556;2023-06-04T05:12:59;8.88;;;3.55;;
29358;SDS011;16347;53.232;6.556;2023-06-04T05:15:37;7.93;;;4.03;;
29358;SDS011;16347;53.232;6.556;2023-06-04T05:18:07;10.25;;;4.43;;
29358;SDS011;16347;53.232;6.556;2023-06-04T05:20:37;18.02;;;3.78;;
29358;SDS011;16347;53.232;6.556;2023-06-04T05:23:08;8.73;;;4.25;;
29358;SDS011;16347;53.232;6.556;2023-06-04T05:25:39;12.43;;;4.00;;
29358;SDS011;16347;53.232;6.556;2023-06-04T05:28:09;16.33;;;4.82;;
29358;SDS011;16347;53.232;6.556;2023-06-04T05:30:40;12.60;;;4.80;;
29358;SDS011;16347;53.232;6.556;2023-06-04T05:33:10;13.65;;;5.53;;
29358;SDS011;16347;53.232;6.556;2023-06-04T05:35:49;18.08;;;5.38;;
29358;SDS011;16347;53.232;6.556;2023-06-04T05:38:19;13.50;;;5.10;;
29358;SDS011;16347;53.232;6.556;2023-06-04T05:40:53;10.93;;;4.60;;
29358;SDS011;16347;53.232;6.556;2023-06-04T05:43:24;13.25;;;4.38;;
29358;SDS011;16347;53.232;6.556;2023-06-04T05:45:54;13.73;;;4.43;;
29358;SDS011;16347;53.232;6.556;2023-06-04T05:48:22;13.13;;;4.13;;
29358;SDS011;16347;53.232;6.556;2023-06-04T05:50:50;12.80;;;4.45;;
29358;SDS011;16347;53.232;6.556;2023-06-04T05:53:19;9.65;;;4.35;;
29358;SDS011;16347;53.232;6.556;2023-06-04T05:55:49;12.60;;;3.75;;
29358;SDS011;16347;53.232;6.556;2023-06-04T05:58:17;12.18;;;4.43;;
29358;SDS011;16347;53.232;6.556;2023-06-04T06:00:45;10.70;;;4.40;;
29358;SDS011;16347;53.232;6.556;2023-06-04T06:03:17;8.57;;;3.75;;
29358;SDS011;16347;53.232;6.556;2023-06-04T06:05:47;7.22;;;3.78;;
29358;SDS011;16347;53.232;6.556;2023-06-04T06:08:15;7.28;;;3.75;;
29358;SDS011;16347;53.232;6.556;2023-06-04T06:10:43;12.32;;;4.32;;
29358;SDS011;16347;53.232;6.556;2023-06-04T06:13:11;8.38;;;3.95;;
29358;SDS011;16347;53.232;6.556;2023-06-04T06:15:39;9.52;;;3.55;;
29358;SDS011;16347;53.232;6.556;2023-06-04T06:18:07;7.78;;;3.63;;
29358;SDS011;16347;53.232;6.556;2023-06-04T06:20:37;12.07;;;3.63;;
29358;SDS011;16347;53.232;6.556;2023-06-04T06:23:05;8.43;;;3.50;;
29358;SDS011;16347;53.232;6.556;2023-06-04T06:25:37;13.90;;;3.80;;
29358;SDS011;16347;53.232;6.556;2023-06-04T06:28:12;18.50;;;3.92;;
29358;SDS011;16347;53.232;6.556;2023-06-04T06:30:40;12.55;;;3.40;;
29358;SDS011;16347;53.232;6.556;2023-06-04T06:33:09;10.80;;;3.20;;
29358;SDS011;16347;53.232;6.556;2023-06-04T06:35:38;11.85;;;3.60;;
29358;SDS011;16347;53.232;6.556;2023-06-04T06:38:06;13.35;;;4.05;;
29358;SDS011;16347;53.232;6.556;2023-06-04T06:40:34;20.40;;;5.57;;
29358;SDS011;16347;53.232;6.556;2023-06-04T06:43:02;8.48;;;2.70;;
29358;SDS011;16347;53.232;6.556;2023-06-04T06:45:30;14.57;;;3.22;;
29358;SDS011;16347;53.232;6.556;2023-06-04T06:47:58;13.55;;;3.58;;
29358;SDS011;16347;53.232;6.556;2023-06-04T06:50:26;10.65;;;2.50;;
29358;SDS011;16347;53.232;6.556;2023-06-04T06:52:56;9.98;;;2.58;;
29358;SDS011;16347;53.232;6.556;2023-06-04T06:55:24;10.38;;;2.65;;
29358;SDS011;16347;53.232;6.556;2023-06-04T06:57:52;14.45;;;2.80;;
29358;SDS011;16347;53.232;6.556;2023-06-04T07:00:23;12.73;;;2.45;;
29358;SDS011;16347;53.232;6.556;2023-06-04T07:02:51;13.95;;;3.05;;
29358;SDS011;16347;53.232;6.556;2023-06-04T07:05:19;11.18;;;2.63;;
29358;SDS011;16347;53.232;6.556;2023-06-04T07:07:47;9.07;;;2.35;;
29358;SDS011;16347;53.232;6.556;2023-06-04T07:10:17;9.30;;;2.53;;
29358;SDS011;16347;53.232;6.556;2023-06-04T07:12:45;7.60;;;2.50;;
29358;SDS011;16347;53.232;6.556;2023-06-04T07:15:13;8.68;;;2.30;;
29358;SDS011;16347;53.232;6.556;2023-06-04T07:17:42;6.47;;;2.28;;
29358;SDS011;16347;53.232;6.556;2023-06-04T07:20:10;7.40;;;2.67;;
29358;SDS011;16347;53.232;6.556;2023-06-04T07:22:38;11.70;;;2.55;;
29358;SDS011;16347;53.232;6.556;2023-06-04T07:25:07;8.82;;;3.10;;
29358;SDS011;16347;53.232;6.556;2023-06-04T07:27:37;8.80;;;2.60;;
29358;SDS011;16347;53.232;6.556;2023-06-04T07:30:06;10.18;;;2.05;;
29358;SDS011;16347;53.232;6.556;2023-06-04T07:32:35;6.65;;;2.28;;
29358;SDS011;16347;53.232;6.556;2023-06-04T07:35:04;7.97;;;2.42;;
29358;SDS011;16347;53.232;6.556;2023-06-04T07:37:33;12.15;;;2.85;;
29358;SDS011;16347;53.232;6.556;2023-06-04T07:40:01;11.98;;;2.60;;
29358;SDS011;16347;53.232;6.556;2023-06-04T07:42:30;5.47;;;2.00;;
29358;SDS011;16347;53.232;6.556;2023-06-04T07:44:59;8.50;;;1.98;;
29358;SDS011;16347;53.232;6.556;2023-06-04T07:47:28;6.18;;;1.98;;
29358;SDS011;16347;53.232;6.556;2023-06-04T07:49:56;8.57;;;2.28;;
29358;SDS011;16347;53.232;6.556;2023-06-04T07:52:29;6.22;;;2.45;;
29358;SDS011;16347;53.232;6.556;2023-06-04T07:54:57;10.38;;;2.17;;
29358;SDS011;16347;53.232;6.556;2023-06-04T07:57:26;6.35;;;2.25;;
29358;SDS011;16347;53.232;6.556;2023-06-04T07:59:54;8.93;;;2.25;;
29358;SDS011;16347;53.232;6.556;2023-06-04T08:02:24;9.27;;;2.00;;
29358;SDS011;16347;53.232;6.556;2023-06-04T08:04:53;7.80;;;2.03;;
29358;SDS011;16347;53.232;6.556;2023-06-04T08:07:21;8.05;;;2.38;;
29358;SDS011;16347;53.232;6.556;2023-06-04T08:09:49;13.70;;;3.25;;
29358;SDS011;16347;53.232;6.556;2023-06-04T08:12:18;11.88;;;2.60;;
29358;SDS011;16347;53.232;6.556;2023-06-04T08:14:46;9.00;;;2.20;;
29358;SDS011;16347;53.232;6.556;2023-06-04T08:17:14;9.05;;;2.72;;
29358;SDS011;16347;53.232;6.556;2023-06-04T08:19:43;8.15;;;2.45;;
29358;SDS011;16347;53.232;6.556;2023-06-04T08:22:11;8.85;;;2.50;;
29358;SDS011;16347;53.232;6.556;2023-06-04T08:24:39;5.30;;;2.13;;
29358;SDS011;16347;53.232;6.556;2023-06-04T08:27:07;11.48;;;2.35;;
29358;SDS011;16347;53.232;6.556;2023-06-04T08:29:35;6.90;;;1.95;;
29358;SDS011;16347;53.232;6.556;2023-06-04T08:32:03;8.57;;;1.95;;
29358;SDS011;16347;53.232;6.556;2023-06-04T08:34:32;8.32;;;2.50;;
29358;SDS011;16347;53.232;6.556;2023-06-04T08:37:01;7.22;;;2.20;;
29358;SDS011;16347;53.232;6.556;2023-06-04T08:39:30;7.60;;;2.10;;
29358;SDS011;16347;53.232;6.556;2023-06-04T08:42:00;6.75;;;2.25;;
29358;SDS011;16347;53.232;6.556;2023-06-04T08:44:31;6.47;;;2.20;;
29358;SDS011;16347;53.232;6.556;2023-06-04T08:47:01;4.93;;;2.05;;
29358;SDS011;16347;53.232;6.556;2023-06-04T08:49:32;12.55;;;2.45;;
29358;SDS011;16347;53.232;6.556;2023-06-04T08:52:04;8.68;;;2.42;;
29358;SDS011;16347;53.232;6.556;2023-06-04T08:54:33;10.23;;;2.08;;
29358;SDS011;16347;53.232;6.556;2023-06-04T08:57:01;7.60;;;1.90;;
29358;SDS011;16347;53.232;6.556;2023-06-04T08:59:30;5.03;;;2.00;;
29358;SDS011;16347;53.232;6.556;2023-06-04T09:02:01;2.38;;;1.50;;
29358;SDS011;16347;53.232;6.556;2023-06-04T09:04:31;10.93;;;2.83;;
29358;SDS011;16347;53.232;6.556;2023-06-04T09:07:00;4.00;;;1.50;;
29358;SDS011;16347;53.232;6.556;2023-06-04T09:09:31;4.43;;;1.92;;
29358;SDS011;16347;53.232;6.556;2023-06-04T09:12:05;4.97;;;2.05;;
29358;SDS011;16347;53.232;6.556;2023-06-04T09:14:36;8.70;;;3.40;;
29358;SDS011;16347;53.232;6.556;2023-06-04T09:17:04;5.88;;;1.73;;
29358;SDS011;16347;53.232;6.556;2023-06-04T09:19:32;4.18;;;1.58;;
29358;SDS011;16347;53.232;6.556;2023-06-04T09:22:00;10.02;;;2.47;;
29358;SDS011;16347;53.232;6.556;2023-06-04T09:24:39;5.35;;;2.28;;
29358;SDS011;16347;53.232;6.556;2023-06-04T09:27:11;5.30;;;1.95;;
29358;SDS011;16347;53.232;6.556;2023-06-04T09:29:48;6.80;;;2.00;;
29358;SDS011;16347;53.232;6.556;2023-06-04T09:32:20;4.15;;;1.60;;
29358;SDS011;16347;53.232;6.556;2023-06-04T09:34:49;6.70;;;2.60;;
29358;SDS011;16347;53.232;6.556;2023-06-04T09:37:19;3.97;;;2.00;;
29358;SDS011;16347;53.232;6.556;2023-06-04T09:39:54;4.82;;;2.15;;
29358;SDS011;16347;53.232;6.556;2023-06-04T09:42:24;4.53;;;1.85;;
29358;SDS011;16347;53.232;6.556;2023-06-04T09:44:53;5.72;;;1.80;;
29358;SDS011;16347;53.232;6.556;2023-06-04T09:47:23;2.47;;;1.80;;
29358;SDS011;16347;53.232;6.556;2023-06-04T09:49:52;2.90;;;1.77;;
29358;SDS011;16347;53.232;6.556;2023-06-04T09:52:31;3.20;;;1.80;;
29358;SDS011;16347;53.232;6.556;2023-06-04T09:55:03;4.10;;;1.75;;
29358;SDS011;16347;53.232;6.556;2023-06-04T09:57:33;10.65;;;2.20;;
29358;SDS011;16347;53.232;6.556;2023-06-04T10:00:02;7.57;;;1.73;;
29358;SDS011;16347;53.232;6.556;2023-06-04T10:02:38;5.82;;;1.92;;
29358;SDS011;16347;53.232;6.556;2023-06-04T10:05:08;4.70;;;1.88;;
29358;SDS011;16347;53.232;6.556;2023-06-04T10:07:41;5.77;;;1.90;;
29358;SDS011;16347;53.232;6.556;2023-06-04T10:10:14;5.65;;;2.03;;
29358;SDS011;16347;53.232;6.556;2023-06-04T10:12:45;6.25;;;2.13;;
29358;SDS011;16347;53.232;6.556;2023-06-04T10:15:18;13.25;;;2.22;;
29358;SDS011;16347;53.232;6.556;2023-06-04T10:17:48;3.42;;;1.60;;
29358;SDS011;16347;53.232;6.556;2023-06-04T10:20:17;8.77;;;1.90;;
29358;SDS011;16347;53.232;6.556;2023-06-04T10:22:47;8.27;;;2.45;;
29358;SDS011;16347;53.232;6.556;2023-06-04T10:25:18;3.25;;;1.83;;
29358;SDS011;16347;53.232;6.556;2023-06-04T10:27:50;4.28;;;1.77;;
29358;SDS011;16347;53.232;6.556;2023-06-04T10:30:20;6.22;;;1.50;;
29358;SDS011;16347;53.232;6.556;2023-06-04T10:32:49;3.47;;;1.92;;
29358;SDS011;16347;53.232;6.556;2023-06-04T10:35:18;3.75;;;1.73;;
29358;SDS011;16347;53.232;6.556;2023-06-04T10:38:05;8.13;;;2.00;;
29358;SDS011;16347;53.232;6.556;2023-06-04T10:40:34;4.10;;;1.73;;
29358;SDS011;16347;53.232;6.556;2023-06-04T10:43:06;6.10;;;1.75;;
29358;SDS011;16347;53.232;6.556;2023-06-04T10:45:35;7.72;;;1.63;;
29358;SDS011;16347;53.232;6.556;2023-06-04T10:48:03;6.03;;;2.40;;
29358;SDS011;16347;53.232;6.556;2023-06-04T10:50:32;6.10;;;2.22;;
29358;SDS011;16347;53.232;6.556;2023-06-04T10:53:01;5.20;;;1.63;;
29358;SDS011;16347;53.232;6.556;2023-06-04T10:55:30;13.00;;;1.88;;
29358;SDS011;16347;53.232;6.556;2023-06-04T10:58:02;4.30;;;1.60;;
29358;SDS011;16347;53.232;6.556;2023-06-04T11:00:36;6.47;;;1.50;;
29358;SDS011;16347;53.232;6.556;2023-06-04T11:03:05;8.93;;;1.63;;
29358;SDS011;16347;53.232;6.556;2023-06-04T11:05:35;4.93;;;1.75;;
29358;SDS011;16347;53.232;6.556;2023-06-04T11:08:04;10.30;;;1.90;;
29358;SDS011;16347;53.232;6.556;2023-06-04T11:10:33;5.28;;;1.92;;
29358;SDS011;16347;53.232;6.556;2023-06-04T11:13:04;5.78;;;1.60;;
29358;SDS011;16347;53.232;6.556;2023-06-04T11:15:39;5.60;;;1.85;;
29358;SDS011;16347;53.232;6.556;2023-06-04T11:18:08;4.82;;;2.30;;
29358;SDS011;16347;53.232;6.556;2023-06-04T11:20:41;6.57;;;1.70;;
29358;SDS011;16347;53.232;6.556;2023-06-04T11:23:11;4.82;;;2.05;;
29358;SDS011;16347;53.232;6.556;2023-06-04T11:25:40;10.20;;;2.40;;
29358;SDS011;16347;53.232;6.556;2023-06-04T11:28:14;5.07;;;1.67;;
29358;SDS011;16347;53.232;6.556;2023-06-04T11:30:44;6.22;;;2.10;;
29358;SDS011;16347;53.232;6.556;2023-06-04T11:33:24;4.10;;;1.90;;
29358;SDS011;16347;53.232;6.556;2023-06-04T11:35:52;10.30;;;2.50;;
29358;SDS011;16347;53.232;6.556;2023-06-04T11:38:20;4.18;;;1.90;;
29358;SDS011;16347;53.232;6.556;2023-06-04T11:40:54;5.20;;;1.85;;
29358;SDS011;16347;53.232;6.556;2023-06-04T11:43:25;6.07;;;1.90;;
29358;SDS011;16347;53.232;6.556;2023-06-04T11:45:53;5.72;;;1.73;;
29358;SDS011;16347;53.232;6.556;2023-06-04T11:48:21;7.50;;;1.92;;
29358;SDS011;16347;53.232;6.556;2023-06-04T11:50:49;8.75;;;2.35;;
29358;SDS011;16347;53.232;6.556;2023-06-04T11:53:18;5.68;;;2.10;;
29358;SDS011;16347;53.232;6.556;2023-06-04T11:55:46;7.63;;;2.10;;
29358;SDS011;16347;53.232;6.556;2023-06-04T11:58:14;6.43;;;1.63;;
29358;SDS011;16347;53.232;6.556;2023-06-04T12:00:45;2.30;;;1.42;;
29358;SDS011;16347;53.232;6.556;2023-06-04T12:03:13;9.88;;;1.60;;
29358;SDS011;16347;53.232;6.556;2023-06-04T12:05:41;4.97;;;1.70;;
29358;SDS011;16347;53.232;6.556;2023-06-04T12:08:09;7.55;;;1.92;;
29358;SDS011;16347;53.232;6.556;2023-06-04T12:10:38;5.95;;;1.58;;
29358;SDS011;16347;53.232;6.556;2023-06-04T12:13:07;6.18;;;1.55;;
29358;SDS011;16347;53.232;6.556;2023-06-04T12:15:35;4.63;;;1.85;;
29358;SDS011;16347;53.232;6.556;2023-06-04T12:18:05;6.93;;;1.85;;
29358;SDS011;16347;53.232;6.556;2023-06-04T12:20:34;4.90;;;1.77;;
29358;SDS011;16347;53.232;6.556;2023-06-04T12:23:03;2.42;;;1.38;;
29358;SDS011;16347;53.232;6.556;2023-06-04T12:25:33;5.28;;;1.95;;
29358;SDS011;16347;53.232;6.556;2023-06-04T12:28:04;4.35;;;1.52;;
29358;SDS011;16347;53.232;6.556;2023-06-04T12:30:35;4.03;;;1.63;;
29358;SDS011;16347;53.232;6.556;2023-06-04T12:33:05;5.20;;;1.90;;
29358;SDS011;16347;53.232;6.556;2023-06-04T12:35:33;9.18;;;1.40;;
29358;SDS011;16347;53.232;6.556;2023-06-04T12:38:03;5.07;;;1.63;;
29358;SDS011;16347;53.232;6.556;2023-06-04T12:40:31;3.42;;;1.52;;
29358;SDS011;16347;53.232;6.556;2023-06-04T12:42:59;3.55;;;1.50;;
29358;SDS011;16347;53.232;6.556;2023-06-04T12:45:28;7.07;;;2.20;;
29358;SDS011;16347;53.232;6.556;2023-06-04T12:47:56;7.03;;;1.88;;
29358;SDS011;16347;53.232;6.556;2023-06-04T12:50:26;4.75;;;1.77;;
29358;SDS011;16347;53.232;6.556;2023-06-04T12:52:54;7.50;;;1.60;;
29358;SDS011;16347;53.232;6.556;2023-06-04T12:55:22;5.70;;;2.28;;
29358;SDS011;16347;53.232;6.556;2023-06-04T12:57:53;6.50;;;1.65;;
29358;SDS011;16347;53.232;6.556;2023-06-04T13:00:21;3.65;;;1.42;;
29358;SDS011;16347;53.232;6.556;2023-06-04T13:02:50;4.70;;;1.60;;
29358;SDS011;16347;53.232;6.556;2023-06-04T13:05:18;4.65;;;1.40;;
29358;SDS011;16347;53.232;6.556;2023-06-04T13:07:47;3.63;;;1.63;;
29358;SDS011;16347;53.232;6.556;2023-06-04T13:10:15;6.90;;;1.98;;
29358;SDS011;16347;53.232;6.556;2023-06-04T13:12:43;2.95;;;1.63;;
29358;SDS011;16347;53.232;6.556;2023-06-04T13:15:11;7.43;;;1.90;;
29358;SDS011;16347;53.232;6.556;2023-06-04T13:17:39;4.30;;;1.83;;
29358;SDS011;16347;53.232;6.556;2023-06-04T13:20:08;7.50;;;1.70;;
29358;SDS011;16347;53.232;6.556;2023-06-04T13:22:37;10.68;;;1.60;;
29358;SDS011;16347;53.232;6.556;2023-06-04T13:25:06;6.85;;;1.92;;
29358;SDS011;16347;53.232;6.556;2023-06-04T13:27:35;4.45;;;2.15;;
29358;SDS011;16347;53.232;6.556;2023-06-04T13:30:03;3.90;;;2.38;;
29358;SDS011;16347;53.232;6.556;2023-06-04T13:32:33;5.40;;;1.73;;
29358;SDS011;16347;53.232;6.556;2023-06-04T13:35:01;5.40;;;1.75;;
29358;SDS011;16347;53.232;6.556;2023-06-04T13:37:29;5.95;;;2.00;;
29358;SDS011;16347;53.232;6.556;2023-06-04T13:39:57;6.50;;;1.65;;
29358;SDS011;16347;53.232;6.556;2023-06-04T13:42:27;6.18;;;1.95;;
29358;SDS011;16347;53.232;6.556;2023-06-04T13:44:55;4.72;;;1.88;;
29358;SDS011;16347;53.232;6.556;2023-06-04T13:47:23;4.68;;;1.95;;
29358;SDS011;16347;53.232;6.556;2023-06-04T13:49:51;5.80;;;2.40;;
29358;SDS011;16347;53.232;6.556;2023-06-04T13:52:19;5.40;;;1.42;;
29358;SDS011;16347;53.232;6.556;2023-06-04T13:54:47;5.80;;;1.88;;
29358;SDS011;16347;53.232;6.556;2023-06-04T13:57:16;3.33;;;1.67;;
29358;SDS011;16347;53.232;6.556;2023-06-04T13:59:45;5.00;;;1.90;;
29358;SDS011;16347;53.232;6.556;2023-06-04T14:02:13;6.88;;;1.75;;
29358;SDS011;16347;53.232;6.556;2023-06-04T14:04:41;6.43;;;1.80;;
29358;SDS011;16347;53.232;6.556;2023-06-04T14:07:09;7.03;;;1.95;;
29358;SDS011;16347;53.232;6.556;2023-06-04T14:09:37;6.97;;;1.48;;
29358;SDS011;16347;53.232;6.556;2023-06-04T14:12:05;5.13;;;1.67;;
29358;SDS011;16347;53.232;6.556;2023-06-04T14:14:33;4.88;;;1.52;;
29358;SDS011;16347;53.232;6.556;2023-06-04T14:17:05;8.63;;;1.65;;
29358;SDS011;16347;53.232;6.556;2023-06-04T14:19:33;6.07;;;1.92;;
29358;SDS011;16347;53.232;6.556;2023-06-04T14:22:01;3.47;;;1.52;;
29358;SDS011;16347;53.232;6.556;2023-06-04T14:24:30;4.32;;;1.63;;
29358;SDS011;16347;53.232;6.556;2023-06-04T14:26:58;5.28;;;1.38;;
29358;SDS011;16347;53.232;6.556;2023-06-04T14:29:26;4.50;;;1.40;;
29358;SDS011;16347;53.232;6.556;2023-06-04T14:31:54;6.10;;;1.55;;
29358;SDS011;16347;53.232;6.556;2023-06-04T14:34:23;5.13;;;1.77;;
29358;SDS011;16347;53.232;6.556;2023-06-04T14:36:51;5.88;;;1.83;;
29358;SDS011;16347;53.232;6.556;2023-06-04T14:39:19;4.57;;;1.70;;
29358;SDS011;16347;53.232;6.556;2023-06-04T14:41:48;4.65;;;1.88;;
29358;SDS011;16347;53.232;6.556;2023-06-04T14:44:17;11.25;;;2.15;;
29358;SDS011;16347;53.232;6.556;2023-06-04T14:46:45;8.30;;;1.90;;
29358;SDS011;16347;53.232;6.556;2023-06-04T14:49:13;6.95;;;2.00;;
29358;SDS011;16347;53.232;6.556;2023-06-04T14:51:42;5.53;;;2.08;;
29358;SDS011;16347;53.232;6.556;2023-06-04T14:54:10;4.28;;;2.00;;
29358;SDS011;16347;53.232;6.556;2023-06-04T14:56:38;7.70;;;2.53;;
29358;SDS011;16347;53.232;6.556;2023-06-04T14:59:06;4.43;;;1.95;;
29358;SDS011;16347;53.232;6.556;2023-06-04T15:01:35;7.97;;;1.95;;
29358;SDS011;16347;53.232;6.556;2023-06-04T15:04:04;5.70;;;2.00;;